createdAt,value
2023-04-05T00:01:50.035Z,11.52
2023-04-05T00:06:55.205Z,7.43
2023-04-05T00:11:57.995Z,11.02
2023-04-05T00:17:00.999Z,8.55
2023-04-05T00:22:05.309Z,7.35
2023-04-05T00:27:08.132Z,9.52
2023-04-05T00:32:11.209Z,9.60
2023-04-05T00:37:15.543Z,6.72
2023-04-05T00:42:18.370Z,7.07
2023-04-05T00:47:21.336Z,6.93
2023-04-05T00:52:27.115Z,11.65
2023-04-05T00:57:30.280Z,6.45
2023-04-05T01:02:36.611Z,8.25
2023-04-05T01:07:47.481Z,8.82
2023-04-05T01:12:50.786Z,12.63
2023-04-05T01:17:54.233Z,8.20
2023-04-05T01:23:14.977Z,7.50
2023-04-05T01:28:36.090Z,6.53
2023-04-05T01:33:46.096Z,10.93
2023-04-05T01:38:52.000Z,6.75
2023-04-05T01:43:54.752Z,8.13
2023-04-05T01:48:59.340Z,8.95
2023-04-05T01:54:02.279Z,7.80
2023-04-05T01:59:05.326Z,8.43
2023-04-05T02:04:09.605Z,10.07
2023-04-05T02:09:13.882Z,11.68
2023-04-05T02:14:17.167Z,8.40
2023-04-05T02:19:23.116Z,10.07
2023-04-05T02:24:26.554Z,6.50
2023-04-05T02:29:29.746Z,12.50
2023-04-05T02:34:34.326Z,5.93
2023-04-05T02:39:37.134Z,10.18
2023-04-05T02:44:41.163Z,7.65
2023-04-05T02:49:47.241Z,9.90
2023-04-05T02:54:51.802Z,10.57
2023-04-05T03:00:01.191Z,11.75
2023-04-05T03:05:09.771Z,8.43
2023-04-05T03:10:18.646Z,10.57
2023-04-05T03:15:28.051Z,9.70
2023-04-05T03:20:35.501Z,11.20
2023-04-05T03:25:41.623Z,9.13
2023-04-05T03:30:45.900Z,14.02
2023-04-05T03:35:56.417Z,9.82
2023-04-05T03:41:00.103Z,8.32
2023-04-05T03:46:05.160Z,8.63
2023-04-05T03:51:09.586Z,11.75
2023-04-05T03:56:12.608Z,9.32
2023-04-05T04:01:21.380Z,9.60
2023-04-05T04:06:27.460Z,9.50
2023-04-05T04:11:30.878Z,11.75
2023-04-05T04:16:37.542Z,8.13
2023-04-05T04:21:53.110Z,11.50
2023-04-05T04:27:19.966Z,10.00
2023-04-05T04:38:09.137Z,10.30
2023-04-05T04:43:26.713Z,9.43
2023-04-05T04:48:48.194Z,10.23
2023-04-05T04:54:07.373Z,14.13
2023-04-05T04:59:10.390Z,21.25
2023-04-05T05:04:13.328Z,20.83
2023-04-05T05:09:19.216Z,16.95
2023-04-05T05:14:26.653Z,17.33
2023-04-05T05:19:30.112Z,14.43
2023-04-05T05:24:35.506Z,10.98
2023-04-05T05:29:38.323Z,10.98
2023-04-05T05:34:41.725Z,12.85
2023-04-05T05:39:45.904Z,14.02
2023-04-05T05:44:48.712Z,10.25
2023-04-05T05:49:51.533Z,15.18
2023-04-05T05:54:55.865Z,16.15
2023-04-05T05:59:58.971Z,23.45
2023-04-05T06:05:02.246Z,21.33
2023-04-05T06:10:07.648Z,17.52
2023-04-05T06:15:11.392Z,6.13
2023-04-05T06:20:14.491Z,27.40
2023-04-05T06:25:18.988Z,13.00
2023-04-05T06:30:22.016Z,8.57
2023-04-05T06:35:27.789Z,7.68
2023-04-05T06:40:32.138Z,10.45
2023-04-05T06:45:35.015Z,11.77
2023-04-05T06:50:37.894Z,9.45
2023-04-05T06:55:42.608Z,8.65
2023-04-05T07:00:45.497Z,10.10
2023-04-05T07:05:52.798Z,8.70
2023-04-05T07:10:57.008Z,7.93
2023-04-05T07:16:03.657Z,11.50
2023-04-05T07:21:06.657Z,11.20
2023-04-05T07:26:12.382Z,13.35
2023-04-05T07:31:16.451Z,8.50
2023-04-05T07:36:19.409Z,10.60
2023-04-05T07:41:23.761Z,8.43
2023-04-05T07:46:27.322Z,7.50
2023-04-05T07:51:31.535Z,9.00
2023-04-05T07:56:37.775Z,9.68
2023-04-05T08:01:40.555Z,12.07
2023-04-05T08:06:43.321Z,6.40
2023-04-05T08:11:47.450Z,8.50
2023-04-05T08:16:50.774Z,6.35
2023-04-05T08:21:54.041Z,10.95
2023-04-05T08:26:58.228Z,7.97
2023-04-05T08:32:01.019Z,7.13
2023-04-05T08:37:03.861Z,7.90
2023-04-05T08:42:13.242Z,4.93
2023-04-05T08:47:20.690Z,6.95
2023-04-05T08:52:23.545Z,6.20
2023-04-05T08:57:32.637Z,8.43
2023-04-05T09:02:36.544Z,6.07
2023-04-05T09:07:40.076Z,6.75
2023-04-05T09:12:44.409Z,5.85
2023-04-05T09:17:47.457Z,6.80
2023-04-05T09:22:50.538Z,5.90
2023-04-05T09:27:57.655Z,5.22
2023-04-05T09:33:01.324Z,5.65
2023-04-05T09:38:06.157Z,9.10
2023-04-05T09:43:13.326Z,7.20
2023-04-05T09:48:16.228Z,6.60
2023-04-05T09:53:19.332Z,7.88
2023-04-05T09:58:33.882Z,5.97
2023-04-05T10:03:48.430Z,5.13
2023-04-05T10:08:52.540Z,7.75
2023-04-05T10:13:56.694Z,7.00
2023-04-05T10:18:59.479Z,9.48
2023-04-05T10:24:11.129Z,7.70
2023-04-05T10:29:21.180Z,6.43
2023-04-05T10:34:32.331Z,6.50
2023-04-05T10:39:41.023Z,6.72
2023-04-05T10:44:49.372Z,8.45
2023-04-05T10:49:55.266Z,7.30
2023-04-05T10:55:00.027Z,7.20
2023-04-05T11:00:05.265Z,5.75
2023-04-05T11:05:29.269Z,5.03
2023-04-05T11:10:33.169Z,4.68
2023-04-05T11:15:37.823Z,5.18
2023-04-05T11:20:45.174Z,5.47
2023-04-05T11:25:51.682Z,5.60
2023-04-05T11:30:58.805Z,6.05
2023-04-05T11:36:02.942Z,5.20
2023-04-05T11:41:17.480Z,6.05
2023-04-05T11:46:22.532Z,6.43
2023-04-05T11:51:29.106Z,7.20
2023-04-05T11:56:31.952Z,6.05
2023-04-05T12:01:36.388Z,5.65
2023-04-05T12:06:39.364Z,5.47
2023-04-05T12:11:42.274Z,5.38
2023-04-05T12:16:51.306Z,7.78
2023-04-05T12:21:54.220Z,7.28
2023-04-05T12:26:59.149Z,6.90
2023-04-05T12:32:04.885Z,7.60
2023-04-05T12:37:07.718Z,8.02
2023-04-05T12:42:18.522Z,4.82
2023-04-05T12:47:22.727Z,5.70
2023-04-05T12:52:28.181Z,8.00
2023-04-05T12:57:32.162Z,4.55
2023-04-05T13:02:36.635Z,4.10
2023-04-05T13:07:39.967Z,6.40
2023-04-05T13:12:43.141Z,5.20
2023-04-05T13:17:49.878Z,4.65
2023-04-05T13:22:53.074Z,3.65
2023-04-05T13:27:56.027Z,4.55
2023-04-05T13:33:00.295Z,5.20
2023-04-05T13:38:04.542Z,5.35
2023-04-05T13:43:07.623Z,6.70
2023-04-05T13:48:11.868Z,6.55
2023-04-05T13:53:15.434Z,4.65
2023-04-05T13:58:18.380Z,6.20
2023-04-05T14:03:22.895Z,4.90
2023-04-05T14:08:25.889Z,4.43
2023-04-05T14:13:28.655Z,5.82
2023-04-05T14:18:32.889Z,5.32
2023-04-05T14:23:38.376Z,5.72
2023-04-05T14:28:41.432Z,6.47
2023-04-05T14:33:45.749Z,4.28
2023-04-05T14:38:48.867Z,6.10
2023-04-05T14:43:51.719Z,4.78
2023-04-05T14:48:56.047Z,6.07
2023-04-05T14:53:58.861Z,4.63
2023-04-05T14:59:02.477Z,4.60
2023-04-05T15:04:09.280Z,3.80
2023-04-05T15:09:12.342Z,5.07
2023-04-05T15:14:24.816Z,4.43
2023-04-05T15:19:36.185Z,4.55
2023-04-05T15:24:40.454Z,5.78
2023-04-05T15:29:43.277Z,6.68
2023-04-05T15:34:47.483Z,4.00
2023-04-05T15:39:50.270Z,4.43
2023-04-05T15:44:53.086Z,4.25
2023-04-05T15:49:58.336Z,5.70
2023-04-05T15:55:01.232Z,5.30
2023-04-05T16:00:04.806Z,7.47
2023-04-05T16:05:09.309Z,4.70
2023-04-05T16:10:12.670Z,4.72
2023-04-05T16:15:15.570Z,6.65
2023-04-05T16:20:19.880Z,3.97
2023-04-05T16:25:22.816Z,4.47
2023-04-05T16:30:26.119Z,6.10
2023-04-05T16:35:31.111Z,7.15
2023-04-05T16:40:34.313Z,5.35
2023-04-05T16:45:37.489Z,6.47
2023-04-05T16:50:42.155Z,5.35
2023-04-05T16:55:45.005Z,6.00
2023-04-05T17:00:47.873Z,7.53
2023-04-05T17:05:52.192Z,4.05
2023-04-05T17:10:55.199Z,10.00
2023-04-05T17:15:58.106Z,6.93
2023-04-05T17:21:02.346Z,5.47
2023-04-05T17:26:05.546Z,6.88
2023-04-05T17:31:08.478Z,4.63
2023-04-05T17:36:12.820Z,5.35
2023-04-05T17:41:15.709Z,4.60
2023-04-05T17:46:27.269Z,3.47
2023-04-05T17:51:34.929Z,6.70
2023-04-05T17:56:38.121Z,11.38
2023-04-05T18:01:41.067Z,6.07
2023-04-05T18:06:45.244Z,5.53
2023-04-05T18:11:48.082Z,5.18
2023-04-05T18:16:51.142Z,4.90
2023-04-05T18:21:55.400Z,7.13
2023-04-05T18:26:58.430Z,5.00
2023-04-05T18:32:01.479Z,5.53
2023-04-05T18:37:06.082Z,7.35
2023-04-05T18:42:09.069Z,12.30
2023-04-05T18:47:11.943Z,9.18
2023-04-05T18:52:21.874Z,10.48
2023-04-05T18:57:26.360Z,12.57
2023-04-05T19:02:29.316Z,7.57
2023-04-05T19:07:33.576Z,6.60
2023-04-05T19:12:36.395Z,9.65
2023-04-05T19:17:39.208Z,9.32
2023-04-05T19:22:43.498Z,7.03
2023-04-05T19:27:46.464Z,7.18
2023-04-05T19:32:49.818Z,9.52
2023-04-05T19:37:54.062Z,9.43
2023-04-05T19:42:56.922Z,14.02
2023-04-05T19:48:01.665Z,8.23
2023-04-05T19:53:08.668Z,10.57
2023-04-05T19:58:12.586Z,11.02
2023-04-05T20:03:30.286Z,13.75
2023-04-05T20:08:36.494Z,12.90
2023-04-05T20:13:43.186Z,11.65
2023-04-05T20:18:47.296Z,11.63
2023-04-05T20:23:51.645Z,8.68
2023-04-05T20:28:55.503Z,5.72
2023-04-05T20:33:59.706Z,5.88
2023-04-05T20:39:06.136Z,8.60
2023-04-05T20:44:09.182Z,11.10
2023-04-05T20:49:12.514Z,7.97
2023-04-05T20:54:16.796Z,10.38
2023-04-05T20:59:19.757Z,6.80
2023-04-05T21:04:22.646Z,6.55
2023-04-05T21:09:27.727Z,9.38
2023-04-05T21:14:30.562Z,8.77
2023-04-05T21:19:33.386Z,7.82
2023-04-05T21:24:37.588Z,10.80
2023-04-05T21:29:40.419Z,8.93
2023-04-05T21:34:43.279Z,8.60
2023-04-05T21:39:47.463Z,10.73
2023-04-05T21:44:50.255Z,8.00
2023-04-05T21:49:53.380Z,7.45
2023-04-05T21:54:58.242Z,5.35
2023-04-05T22:00:01.349Z,7.00
2023-04-05T22:05:04.382Z,6.47
2023-04-05T22:10:09.935Z,6.82
2023-04-05T22:15:12.770Z,8.75
2023-04-05T22:20:15.560Z,9.65
2023-04-05T22:25:19.783Z,7.50
2023-04-05T22:30:22.744Z,7.20
2023-04-05T22:35:25.634Z,7.80
2023-04-05T22:40:29.764Z,8.90
2023-04-05T22:45:32.519Z,9.35
2023-04-05T22:50:35.370Z,8.55
2023-04-05T22:55:40.093Z,6.43
2023-04-05T23:00:42.903Z,7.57
2023-04-05T23:05:45.737Z,8.98
2023-04-05T23:10:49.972Z,8.93
2023-04-05T23:15:52.800Z,11.27
2023-04-05T23:20:55.684Z,10.48
2023-04-05T23:25:59.852Z,9.90
2023-04-05T23:31:02.648Z,10.52
2023-04-05T23:36:06.419Z,8.43
2023-04-05T23:41:11.009Z,12.27
2023-04-05T23:46:13.874Z,10.57
2023-04-05T23:51:16.972Z,9.88
2023-04-05T23:56:21.149Z,8.10
